HEMM

Mersa Matruh Airport

Mersa Matruh, Egypt
TAF HEMM 171700Z 1718/1824 17008KT 9999 FEW020 TEMPO 1803/1806 VRB03KT 6000 NSC NSC
Issued Valid From Valid To
Nov-17 @ 17:00 UTC
(5 hours ago)
Nov-17 @ 18:00 UTC
(4 hours ago)
Nov-19 @ 00:00 UTC
(-1 days ago)
Nov-17 @ 18:00 to Nov-19 @ 00:00
TAF HEMM 171700Z 1718/1824 17008KT 9999 FEW020
Wind Visibility Clouds
170° at 8 knots 10,000+ meters
  • Few at 2,000' AGL
Temporary Nov-18 @ 03:00 to Nov-18 @ 06:00
TEMPO 1803/1806 VRB03KT 6000 NSC NSC
Wind Visibility Clouds
Variable at 3 knots 6,003 meters
  • No significant clouds
TAF HEMM 171700Z 1718/1824 17008KT 9999 FEW020 TEMPO 1803/1806 VRB03KT 6000 NSC NSC
Issued Nov-17 @ 17:00 UTC
(5 hours ago)
Valid From Nov-17 @ 18:00 UTC
(4 hours ago)
Valid To Nov-19 @ 00:00 UTC
(-1 days ago)
Nov-17 @ 18:00 - Nov-19 @ 00:00
Wind Visibility
170° at 8 knots 10,000+ meters
Clouds
  • Few at 2,000' AGL
Temporary Nov-18 @ 03:00 - Nov-18 @ 06:00
Wind Visibility
Variable at 3 knots 6,003 meters
Clouds
  • No significant clouds